sensor_id;sensor_type;location;lat;lon;timestamp;temperature;humidity
69546;SHT31;56766;52.260;20.746;2023-02-07T00:01:29;-4.19;82.36
69546;SHT31;56766;52.260;20.746;2023-02-07T00:03:58;-4.11;82.47
69546;SHT31;56766;52.260;20.746;2023-02-07T00:06:28;-4.05;82.40
69546;SHT31;56766;52.260;20.746;2023-02-07T00:09:01;-3.97;82.38
69546;SHT31;56766;52.260;20.746;2023-02-07T00:11:29;-3.92;82.39
69546;SHT31;56766;52.260;20.746;2023-02-07T00:13:57;-3.91;82.36
69546;SHT31;56766;52.260;20.746;2023-02-07T00:16:25;-3.86;82.50
69546;SHT31;56766;52.260;20.746;2023-02-07T00:18:53;-3.80;82.50
69546;SHT31;56766;52.260;20.746;2023-02-07T00:21:23;-3.76;82.58
69546;SHT31;56766;52.260;20.746;2023-02-07T00:23:52;-3.71;82.73
69546;SHT31;56766;52.260;20.746;2023-02-07T00:26:21;-3.63;82.73
69546;SHT31;56766;52.260;20.746;2023-02-07T00:28:51;-3.58;82.70
69546;SHT31;56766;52.260;20.746;2023-02-07T00:31:23;-3.52;82.69
69546;SHT31;56766;52.260;20.746;2023-02-07T00:33:56;-3.46;82.70
69546;SHT31;56766;52.260;20.746;2023-02-07T00:36:27;-3.41;82.74
69546;SHT31;56766;52.260;20.746;2023-02-07T00:38:58;-3.37;82.90
69546;SHT31;56766;52.260;20.746;2023-02-07T00:41:28;-3.32;82.99
69546;SHT31;56766;52.260;20.746;2023-02-07T00:43:55;-3.27;83.09
69546;SHT31;56766;52.260;20.746;2023-02-07T00:46:22;-3.22;83.00
69546;SHT31;56766;52.260;20.746;2023-02-07T00:48:50;-3.17;82.97
69546;SHT31;56766;52.260;20.746;2023-02-07T00:51:18;-3.15;83.23
69546;SHT31;56766;52.260;20.746;2023-02-07T00:53:45;-3.13;83.34
69546;SHT31;56766;52.260;20.746;2023-02-07T00:56:14;-3.09;83.39
69546;SHT31;56766;52.260;20.746;2023-02-07T00:58:41;-3.02;83.40
69546;SHT31;56766;52.260;20.746;2023-02-07T01:01:07;-3.00;83.28
69546;SHT31;56766;52.260;20.746;2023-02-07T01:03:34;-2.99;83.30
69546;SHT31;56766;52.260;20.746;2023-02-07T01:06:00;-2.99;83.50
69546;SHT31;56766;52.260;20.746;2023-02-07T01:08:27;-2.96;83.58
69546;SHT31;56766;52.260;20.746;2023-02-07T01:10:54;-2.94;83.60
69546;SHT31;56766;52.260;20.746;2023-02-07T01:13:21;-2.90;83.70
69546;SHT31;56766;52.260;20.746;2023-02-07T01:15:48;-2.84;83.70
69546;SHT31;56766;52.260;20.746;2023-02-07T01:18:16;-2.82;83.70
69546;SHT31;56766;52.260;20.746;2023-02-07T01:20:43;-2.80;83.74
69546;SHT31;56766;52.260;20.746;2023-02-07T01:23:11;-2.81;83.83
69546;SHT31;56766;52.260;20.746;2023-02-07T01:25:40;-2.76;83.90
69546;SHT31;56766;52.260;20.746;2023-02-07T01:28:09;-2.73;83.90
69546;SHT31;56766;52.260;20.746;2023-02-07T01:30:43;-2.71;83.91
69546;SHT31;56766;52.260;20.746;2023-02-07T01:33:10;-2.70;83.92
69546;SHT31;56766;52.260;20.746;2023-02-07T01:35:37;-2.72;84.07
69546;SHT31;56766;52.260;20.746;2023-02-07T01:38:04;-2.71;84.17
69546;SHT31;56766;52.260;20.746;2023-02-07T01:40:35;-2.68;84.20
69546;SHT31;56766;52.260;20.746;2023-02-07T01:43:03;-2.65;84.21
69546;SHT31;56766;52.260;20.746;2023-02-07T01:45:37;-2.61;84.19
69546;SHT31;56766;52.260;20.746;2023-02-07T01:48:10;-2.56;84.14
69546;SHT31;56766;52.260;20.746;2023-02-07T01:50:46;-2.51;84.04
69546;SHT31;56766;52.260;20.746;2023-02-07T01:53:18;-2.46;84.07
69546;SHT31;56766;52.260;20.746;2023-02-07T01:55:52;-2.40;83.90
69546;SHT31;56766;52.260;20.746;2023-02-07T01:58:22;-2.37;83.97
69546;SHT31;56766;52.260;20.746;2023-02-07T02:00:50;-2.29;83.91
69546;SHT31;56766;52.260;20.746;2023-02-07T02:03:18;-2.27;83.80
69546;SHT31;56766;52.260;20.746;2023-02-07T02:05:47;-2.26;83.74
69546;SHT31;56766;52.260;20.746;2023-02-07T02:08:17;-2.25;83.76
69546;SHT31;56766;52.260;20.746;2023-02-07T02:11:11;-2.21;83.79
69546;SHT31;56766;52.260;20.746;2023-02-07T02:17:48;-2.15;83.66
69546;SHT31;56766;52.260;20.746;2023-02-07T02:26:54;-2.06;83.82
69546;SHT31;56766;52.260;20.746;2023-02-07T02:30:11;-2.01;83.77
69546;SHT31;56766;52.260;20.746;2023-02-07T02:39:27;-1.96;83.83
69546;SHT31;56766;52.260;20.746;2023-02-07T02:42:38;-1.90;83.85
69546;SHT31;56766;52.260;20.746;2023-02-07T02:45:18;-1.87;83.70
69546;SHT31;56766;52.260;20.746;2023-02-07T02:47:50;-1.85;83.74
69546;SHT31;56766;52.260;20.746;2023-02-07T02:50:22;-1.82;83.70
69546;SHT31;56766;52.260;20.746;2023-02-07T02:52:53;-1.80;83.70
69546;SHT31;56766;52.260;20.746;2023-02-07T02:56:35;-1.79;83.76
69546;SHT31;56766;52.260;20.746;2023-02-07T02:59:11;-1.79;83.80
69546;SHT31;56766;52.260;20.746;2023-02-07T03:11:10;-1.71;83.70
69546;SHT31;56766;52.260;20.746;2023-02-07T03:13:59;-1.70;83.77
69546;SHT31;56766;52.260;20.746;2023-02-07T03:16:57;-1.65;83.75
69546;SHT31;56766;52.260;20.746;2023-02-07T03:19:48;-1.60;83.74
69546;SHT31;56766;52.260;20.746;2023-02-07T03:22:24;-1.60;83.71
69546;SHT31;56766;52.260;20.746;2023-02-07T03:24:56;-1.59;83.72
69546;SHT31;56766;52.260;20.746;2023-02-07T03:27:28;-1.58;83.73
69546;SHT31;56766;52.260;20.746;2023-02-07T03:30:03;-1.60;83.79
69546;SHT31;56766;52.260;20.746;2023-02-07T03:32:37;-1.60;83.88
69546;SHT31;56766;52.260;20.746;2023-02-07T03:35:18;-1.62;83.91
69546;SHT31;56766;52.260;20.746;2023-02-07T03:37:55;-1.65;84.02
69546;SHT31;56766;52.260;20.746;2023-02-07T03:40:28;-1.68;84.13
69546;SHT31;56766;52.260;20.746;2023-02-07T03:45:41;-1.71;84.38
69546;SHT31;56766;52.260;20.746;2023-02-07T03:48:11;-1.71;84.48
69546;SHT31;56766;52.260;20.746;2023-02-07T03:50:38;-1.71;84.60
69546;SHT31;56766;52.260;20.746;2023-02-07T03:53:06;-1.72;84.64
69546;SHT31;56766;52.260;20.746;2023-02-07T03:55:34;-1.70;84.71
69546;SHT31;56766;52.260;20.746;2023-02-07T03:58:02;-1.68;84.75
69546;SHT31;56766;52.260;20.746;2023-02-07T04:00:29;-1.67;84.81
69546;SHT31;56766;52.260;20.746;2023-02-07T04:02:56;-1.65;84.90
69546;SHT31;56766;52.260;20.746;2023-02-07T04:05:24;-1.63;84.97
69546;SHT31;56766;52.260;20.746;2023-02-07T04:07:52;-1.62;85.00
69546;SHT31;56766;52.260;20.746;2023-02-07T04:10:19;-1.62;85.00
69546;SHT31;56766;52.260;20.746;2023-02-07T04:12:45;-1.63;85.02
69546;SHT31;56766;52.260;20.746;2023-02-07T04:15:12;-1.64;85.10
69546;SHT31;56766;52.260;20.746;2023-02-07T04:17:39;-1.62;85.20
69546;SHT31;56766;52.260;20.746;2023-02-07T04:20:06;-1.59;85.20
69546;SHT31;56766;52.260;20.746;2023-02-07T04:22:34;-1.56;85.23
69546;SHT31;56766;52.260;20.746;2023-02-07T04:25:01;-1.53;85.20
69546;SHT31;56766;52.260;20.746;2023-02-07T04:27:27;-1.52;85.16
69546;SHT31;56766;52.260;20.746;2023-02-07T04:29:54;-1.52;85.18
69546;SHT31;56766;52.260;20.746;2023-02-07T04:32:21;-1.53;85.26
69546;SHT31;56766;52.260;20.746;2023-02-07T04:34:49;-1.49;85.26
69546;SHT31;56766;52.260;20.746;2023-02-07T04:37:15;-1.48;85.22
69546;SHT31;56766;52.260;20.746;2023-02-07T04:39:42;-1.46;85.26
69546;SHT31;56766;52.260;20.746;2023-02-07T04:42:09;-1.45;85.28
69546;SHT31;56766;52.260;20.746;2023-02-07T04:44:35;-1.44;85.24
69546;SHT31;56766;52.260;20.746;2023-02-07T04:47:03;-1.41;85.28
69546;SHT31;56766;52.260;20.746;2023-02-07T04:49:29;-1.38;85.28
69546;SHT31;56766;52.260;20.746;2023-02-07T04:51:56;-1.38;85.24
69546;SHT31;56766;52.260;20.746;2023-02-07T04:54:23;-1.37;85.30
69546;SHT31;56766;52.260;20.746;2023-02-07T04:56:49;-1.36;85.30
69546;SHT31;56766;52.260;20.746;2023-02-07T04:59:16;-1.35;85.30
69546;SHT31;56766;52.260;20.746;2023-02-07T05:01:43;-1.34;85.30
69546;SHT31;56766;52.260;20.746;2023-02-07T05:04:09;-1.36;85.37
69546;SHT31;56766;52.260;20.746;2023-02-07T05:06:36;-1.36;85.41
69546;SHT31;56766;52.260;20.746;2023-02-07T05:09:02;-1.36;85.46
69546;SHT31;56766;52.260;20.746;2023-02-07T05:11:29;-1.36;85.50
69546;SHT31;56766;52.260;20.746;2023-02-07T05:13:55;-1.34;85.50
69546;SHT31;56766;52.260;20.746;2023-02-07T05:16:22;-1.33;85.50
69546;SHT31;56766;52.260;20.746;2023-02-07T05:18:48;-1.33;85.52
69546;SHT31;56766;52.260;20.746;2023-02-07T05:21:15;-1.34;85.60
69546;SHT31;56766;52.260;20.746;2023-02-07T05:23:41;-1.33;85.61
69546;SHT31;56766;52.260;20.746;2023-02-07T05:26:08;-1.30;85.63
69546;SHT31;56766;52.260;20.746;2023-02-07T05:28:36;-1.29;85.58
69546;SHT31;56766;52.260;20.746;2023-02-07T05:31:03;-1.28;85.56
69546;SHT31;56766;52.260;20.746;2023-02-07T05:33:30;-1.28;85.56
69546;SHT31;56766;52.260;20.746;2023-02-07T05:35:59;-1.26;85.57
69546;SHT31;56766;52.260;20.746;2023-02-07T05:38:30;-1.24;85.52
69546;SHT31;56766;52.260;20.746;2023-02-07T05:40:57;-1.20;85.57
69546;SHT31;56766;52.260;20.746;2023-02-07T05:43:24;-1.21;85.56
69546;SHT31;56766;52.260;20.746;2023-02-07T05:45:50;-1.17;85.50
69546;SHT31;56766;52.260;20.746;2023-02-07T05:48:17;-1.17;85.46
69546;SHT31;56766;52.260;20.746;2023-02-07T05:50:44;-1.17;85.48
69546;SHT31;56766;52.260;20.746;2023-02-07T05:53:11;-1.16;85.50
69546;SHT31;56766;52.260;20.746;2023-02-07T05:55:38;-1.13;85.50
69546;SHT31;56766;52.260;20.746;2023-02-07T05:58:04;-1.12;85.50
69546;SHT31;56766;52.260;20.746;2023-02-07T06:00:31;-1.11;85.50
69546;SHT31;56766;52.260;20.746;2023-02-07T06:02:58;-1.11;85.50
69546;SHT31;56766;52.260;20.746;2023-02-07T06:05:24;-1.11;85.50
69546;SHT31;56766;52.260;20.746;2023-02-07T06:07:56;-1.12;85.50
69546;SHT31;56766;52.260;20.746;2023-02-07T06:10:23;-1.11;85.55
69546;SHT31;56766;52.260;20.746;2023-02-07T06:12:50;-1.09;85.60
69546;SHT31;56766;52.260;20.746;2023-02-07T06:15:16;-1.08;85.55
69546;SHT31;56766;52.260;20.746;2023-02-07T06:17:43;-1.07;85.56
69546;SHT31;56766;52.260;20.746;2023-02-07T06:20:10;-1.05;85.53
69546;SHT31;56766;52.260;20.746;2023-02-07T06:22:37;-1.04;85.52
69546;SHT31;56766;52.260;20.746;2023-02-07T06:25:04;-1.03;85.54
69546;SHT31;56766;52.260;20.746;2023-02-07T06:27:30;-1.01;85.51
69546;SHT31;56766;52.260;20.746;2023-02-07T06:29:57;-0.97;85.50
69546;SHT31;56766;52.260;20.746;2023-02-07T06:32:23;-0.96;85.46
69546;SHT31;56766;52.260;20.746;2023-02-07T06:34:50;-0.93;85.40
69546;SHT31;56766;52.260;20.746;2023-02-07T06:37:17;-0.90;85.38
69546;SHT31;56766;52.260;20.746;2023-02-07T06:39:43;-0.86;85.39
69546;SHT31;56766;52.260;20.746;2023-02-07T06:42:10;-0.82;85.30
69546;SHT31;56766;52.260;20.746;2023-02-07T06:44:37;-0.79;85.33
69546;SHT31;56766;52.260;20.746;2023-02-07T06:47:03;-0.73;85.22
69546;SHT31;56766;52.260;20.746;2023-02-07T06:49:31;-0.71;85.08
69546;SHT31;56766;52.260;20.746;2023-02-07T06:51:57;-0.71;85.04
69546;SHT31;56766;52.260;20.746;2023-02-07T06:54:24;-0.66;85.10
69546;SHT31;56766;52.260;20.746;2023-02-07T06:56:52;-0.62;85.03
69546;SHT31;56766;52.260;20.746;2023-02-07T06:59:18;-0.59;85.01
69546;SHT31;56766;52.260;20.746;2023-02-07T07:01:45;-0.53;84.90
69546;SHT31;56766;52.260;20.746;2023-02-07T07:04:11;-0.47;84.79
69546;SHT31;56766;52.260;20.746;2023-02-07T07:06:38;-0.43;84.69
69546;SHT31;56766;52.260;20.746;2023-02-07T07:09:04;-0.40;84.64
69546;SHT31;56766;52.260;20.746;2023-02-07T07:11:31;-0.35;84.59
69546;SHT31;56766;52.260;20.746;2023-02-07T07:13:57;-0.31;84.52
69546;SHT31;56766;52.260;20.746;2023-02-07T07:16:25;-0.26;84.44
69546;SHT31;56766;52.260;20.746;2023-02-07T07:18:52;-0.20;84.28
69546;SHT31;56766;52.260;20.746;2023-02-07T07:21:19;-0.17;84.18
69546;SHT31;56766;52.260;20.746;2023-02-07T07:23:46;-0.12;84.15
69546;SHT31;56766;52.260;20.746;2023-02-07T07:26:12;-0.08;84.09
69546;SHT31;56766;52.260;20.746;2023-02-07T07:28:39;-0.05;84.02
69546;SHT31;56766;52.260;20.746;2023-02-07T07:31:07;-0.00;83.95
69546;SHT31;56766;52.260;20.746;2023-02-07T07:33:34;0.05;83.90
69546;SHT31;56766;52.260;20.746;2023-02-07T07:36:02;0.13;83.86
69546;SHT31;56766;52.260;20.746;2023-02-07T07:38:30;0.19;83.71
69546;SHT31;56766;52.260;20.746;2023-02-07T07:40:58;0.22;83.56
69546;SHT31;56766;52.260;20.746;2023-02-07T07:43:26;0.27;83.39
69546;SHT31;56766;52.260;20.746;2023-02-07T07:45:55;0.29;83.32
69546;SHT31;56766;52.260;20.746;2023-02-07T07:48:23;0.36;83.30
69546;SHT31;56766;52.260;20.746;2023-02-07T07:50:51;0.41;83.04
69546;SHT31;56766;52.260;20.746;2023-02-07T07:53:18;0.43;82.94
69546;SHT31;56766;52.260;20.746;2023-02-07T07:55:54;0.49;83.00
69546;SHT31;56766;52.260;20.746;2023-02-07T07:58:24;0.56;82.83
69546;SHT31;56766;52.260;20.746;2023-02-07T08:00:51;0.62;82.85
69546;SHT31;56766;52.260;20.746;2023-02-07T08:03:19;0.71;82.81
69546;SHT31;56766;52.260;20.746;2023-02-07T08:05:47;0.78;82.57
69546;SHT31;56766;52.260;20.746;2023-02-07T08:08:15;0.83;82.44
69546;SHT31;56766;52.260;20.746;2023-02-07T08:10:42;0.86;82.21
69546;SHT31;56766;52.260;20.746;2023-02-07T08:13:09;0.88;82.13
69546;SHT31;56766;52.260;20.746;2023-02-07T08:15:35;0.86;81.81
69546;SHT31;56766;52.260;20.746;2023-02-07T08:18:03;0.84;81.86
69546;SHT31;56766;52.260;20.746;2023-02-07T08:20:30;0.80;81.54
69546;SHT31;56766;52.260;20.746;2023-02-07T08:22:57;0.84;81.86
69546;SHT31;56766;52.260;20.746;2023-02-07T08:25:24;0.93;81.72
69546;SHT31;56766;52.260;20.746;2023-02-07T08:27:52;1.01;81.67
69546;SHT31;56766;52.260;20.746;2023-02-07T08:30:20;1.14;81.63
69546;SHT31;56766;52.260;20.746;2023-02-07T08:32:47;1.27;81.69
69546;SHT31;56766;52.260;20.746;2023-02-07T08:35:14;1.32;81.25
69546;SHT31;56766;52.260;20.746;2023-02-07T08:37:40;1.34;81.04
69546;SHT31;56766;52.260;20.746;2023-02-07T08:40:07;1.32;80.61
69546;SHT31;56766;52.260;20.746;2023-02-07T08:42:34;1.35;80.79
69546;SHT31;56766;52.260;20.746;2023-02-07T08:45:01;1.46;80.89
69546;SHT31;56766;52.260;20.746;2023-02-07T08:47:30;1.55;80.63
69546;SHT31;56766;52.260;20.746;2023-02-07T08:49:56;1.55;80.01
69546;SHT31;56766;52.260;20.746;2023-02-07T08:52:23;1.52;79.69
69546;SHT31;56766;52.260;20.746;2023-02-07T08:54:50;1.55;80.09
69546;SHT31;56766;52.260;20.746;2023-02-07T08:57:16;1.65;79.81
69546;SHT31;56766;52.260;20.746;2023-02-07T08:59:48;1.73;79.31
69546;SHT31;56766;52.260;20.746;2023-02-07T09:02:14;1.76;79.11
69546;SHT31;56766;52.260;20.746;2023-02-07T09:04:41;1.81;78.96
69546;SHT31;56766;52.260;20.746;2023-02-07T09:07:09;1.78;78.48
69546;SHT31;56766;52.260;20.746;2023-02-07T09:09:37;1.78;78.48
69546;SHT31;56766;52.260;20.746;2023-02-07T09:12:05;1.81;78.29
69546;SHT31;56766;52.260;20.746;2023-02-07T09:14:33;1.89;78.47
69546;SHT31;56766;52.260;20.746;2023-02-07T09:16:59;1.94;77.97
69546;SHT31;56766;52.260;20.746;2023-02-07T09:19:26;1.98;77.81
69546;SHT31;56766;52.260;20.746;2023-02-07T09:21:53;1.93;77.25
69546;SHT31;56766;52.260;20.746;2023-02-07T09:24:20;1.87;77.31
69546;SHT31;56766;52.260;20.746;2023-02-07T09:26:47;1.88;77.52
69546;SHT31;56766;52.260;20.746;2023-02-07T09:29:15;1.95;77.80
69546;SHT31;56766;52.260;20.746;2023-02-07T09:31:42;2.04;77.63
69546;SHT31;56766;52.260;20.746;2023-02-07T09:34:10;2.07;77.03
69546;SHT31;56766;52.260;20.746;2023-02-07T09:36:37;2.07;77.03
69546;SHT31;56766;52.260;20.746;2023-02-07T09:39:04;2.04;76.91
69546;SHT31;56766;52.260;20.746;2023-02-07T09:44:56;1.98;76.92
69546;SHT31;56766;52.260;20.746;2023-02-07T09:47:27;2.00;76.90
69546;SHT31;56766;52.260;20.746;2023-02-07T09:50:19;1.94;76.60
69546;SHT31;56766;52.260;20.746;2023-02-07T09:53:02;2.04;77.14
69546;SHT31;56766;52.260;20.746;2023-02-07T09:56:08;2.13;76.72
69546;SHT31;56766;52.260;20.746;2023-02-07T09:58:45;2.14;76.59
69546;SHT31;56766;52.260;20.746;2023-02-07T10:01:21;2.13;76.40
69546;SHT31;56766;52.260;20.746;2023-02-07T10:04:26;2.17;76.47
69546;SHT31;56766;52.260;20.746;2023-02-07T10:06:58;2.18;76.21
69546;SHT31;56766;52.260;20.746;2023-02-07T10:09:31;2.23;76.27
69546;SHT31;56766;52.260;20.746;2023-02-07T10:12:24;2.30;76.38
69546;SHT31;56766;52.260;20.746;2023-02-07T10:21:13;2.27;76.04
69546;SHT31;56766;52.260;20.746;2023-02-07T10:27:28;2.57;76.05
69546;SHT31;56766;52.260;20.746;2023-02-07T10:32:44;2.68;75.29
69546;SHT31;56766;52.260;20.746;2023-02-07T10:35:20;2.63;74.92
69546;SHT31;56766;52.260;20.746;2023-02-07T10:37:53;2.62;75.42
69546;SHT31;56766;52.260;20.746;2023-02-07T10:40:38;2.70;75.61
69546;SHT31;56766;52.260;20.746;2023-02-07T10:43:26;2.62;74.92
69546;SHT31;56766;52.260;20.746;2023-02-07T10:46:05;2.50;75.08
69546;SHT31;56766;52.260;20.746;2023-02-07T10:48:38;2.57;75.30
69546;SHT31;56766;52.260;20.746;2023-02-07T10:54:12;2.61;74.80
69546;SHT31;56766;52.260;20.746;2023-02-07T10:56:53;2.71;74.93
69546;SHT31;56766;52.260;20.746;2023-02-07T10:59:35;2.80;74.86
69546;SHT31;56766;52.260;20.746;2023-02-07T11:04:55;3.05;74.68
69546;SHT31;56766;52.260;20.746;2023-02-07T11:08:20;3.24;74.60
69546;SHT31;56766;52.260;20.746;2023-02-07T11:10:52;3.32;73.66
69546;SHT31;56766;52.260;20.746;2023-02-07T11:13:26;3.29;73.67
69546;SHT31;56766;52.260;20.746;2023-02-07T11:16:04;3.29;73.72
69546;SHT31;56766;52.260;20.746;2023-02-07T11:18:43;3.38;73.88
69546;SHT31;56766;52.260;20.746;2023-02-07T11:21:49;3.43;73.18
69546;SHT31;56766;52.260;20.746;2023-02-07T11:24:26;3.37;73.20
69546;SHT31;56766;52.260;20.746;2023-02-07T11:27:03;3.33;72.83
69546;SHT31;56766;52.260;20.746;2023-02-07T11:29:52;3.33;72.77
69546;SHT31;56766;52.260;20.746;2023-02-07T11:32:27;3.39;73.05
69546;SHT31;56766;52.260;20.746;2023-02-07T11:34:56;3.39;72.33
69546;SHT31;56766;52.260;20.746;2023-02-07T11:37:45;3.30;72.58
69546;SHT31;56766;52.260;20.746;2023-02-07T11:40:47;3.34;72.94
69546;SHT31;56766;52.260;20.746;2023-02-07T11:43:18;3.35;72.58
69546;SHT31;56766;52.260;20.746;2023-02-07T11:45:51;3.34;72.71
69546;SHT31;56766;52.260;20.746;2023-02-07T11:48:28;3.43;72.93
69546;SHT31;56766;52.260;20.746;2023-02-07T11:51:01;3.49;72.44
69546;SHT31;56766;52.260;20.746;2023-02-07T11:53:37;3.57;72.67
69546;SHT31;56766;52.260;20.746;2023-02-07T11:56:26;3.59;72.32
69546;SHT31;56766;52.260;20.746;2023-02-07T11:58:58;3.57;72.37
69546;SHT31;56766;52.260;20.746;2023-02-07T12:01:32;3.59;72.24
69546;SHT31;56766;52.260;20.746;2023-02-07T12:04:14;3.56;71.95
69546;SHT31;56766;52.260;20.746;2023-02-07T12:09:58;3.56;72.64
69546;SHT31;56766;52.260;20.746;2023-02-07T12:12:40;3.72;72.38
69546;SHT31;56766;52.260;20.746;2023-02-07T12:15:20;3.83;72.46
69546;SHT31;56766;52.260;20.746;2023-02-07T12:21:06;3.99;72.62
69546;SHT31;56766;52.260;20.746;2023-02-07T12:24:10;4.06;71.71
69546;SHT31;56766;52.260;20.746;2023-02-07T12:27:15;3.94;71.42
69546;SHT31;56766;52.260;20.746;2023-02-07T12:30:14;3.92;71.69
69546;SHT31;56766;52.260;20.746;2023-02-07T12:33:09;3.90;71.61
69546;SHT31;56766;52.260;20.746;2023-02-07T12:38:53;3.67;71.36
69546;SHT31;56766;52.260;20.746;2023-02-07T12:41:41;3.58;71.85
69546;SHT31;56766;52.260;20.746;2023-02-07T12:44:45;3.62;72.02
69546;SHT31;56766;52.260;20.746;2023-02-07T13:02:53;3.26;72.09
69546;SHT31;56766;52.260;20.746;2023-02-07T13:05:53;3.31;72.25
69546;SHT31;56766;52.260;20.746;2023-02-07T13:17:15;3.39;72.44
69546;SHT31;56766;52.260;20.746;2023-02-07T13:20:26;3.38;72.34
69546;SHT31;56766;52.260;20.746;2023-02-07T13:23:00;3.35;72.65
69546;SHT31;56766;52.260;20.746;2023-02-07T13:25:35;3.35;72.61
69546;SHT31;56766;52.260;20.746;2023-02-07T13:31:26;3.26;72.72
69546;SHT31;56766;52.260;20.746;2023-02-07T13:34:02;3.14;72.27
69546;SHT31;56766;52.260;20.746;2023-02-07T13:36:36;3.02;72.49
69546;SHT31;56766;52.260;20.746;2023-02-07T13:39:18;2.89;72.75
69546;SHT31;56766;52.260;20.746;2023-02-07T13:42:17;2.86;73.25
69546;SHT31;56766;52.260;20.746;2023-02-07T13:45:27;2.78;73.27
69546;SHT31;56766;52.260;20.746;2023-02-07T13:51:23;2.66;73.60
69546;SHT31;56766;52.260;20.746;2023-02-07T13:54:42;2.60;73.75
69546;SHT31;56766;52.260;20.746;2023-02-07T13:57:41;2.53;74.00
69546;SHT31;56766;52.260;20.746;2023-02-07T14:03:27;2.43;74.44
69546;SHT31;56766;52.260;20.746;2023-02-07T14:06:22;2.44;74.55
69546;SHT31;56766;52.260;20.746;2023-02-07T14:09:07;2.43;74.62
69546;SHT31;56766;52.260;20.746;2023-02-07T14:11:41;2.40;74.53
69546;SHT31;56766;52.260;20.746;2023-02-07T14:14:31;2.34;74.76
69546;SHT31;56766;52.260;20.746;2023-02-07T14:17:06;2.27;74.83
69546;SHT31;56766;52.260;20.746;2023-02-07T14:22:30;2.09;75.00
69546;SHT31;56766;52.260;20.746;2023-02-07T14:27:35;2.02;75.16
69546;SHT31;56766;52.260;20.746;2023-02-07T14:30:20;1.95;75.35
69546;SHT31;56766;52.260;20.746;2023-02-07T14:33:34;1.89;75.58
69546;SHT31;56766;52.260;20.746;2023-02-07T14:38:41;1.82;75.98
69546;SHT31;56766;52.260;20.746;2023-02-07T14:41:14;1.82;76.14
69546;SHT31;56766;52.260;20.746;2023-02-07T14:43:54;1.82;76.20
69546;SHT31;56766;52.260;20.746;2023-02-07T14:46:29;1.77;76.19
69546;SHT31;56766;52.260;20.746;2023-02-07T14:49:05;1.72;76.36
69546;SHT31;56766;52.260;20.746;2023-02-07T14:51:49;1.69;76.54
69546;SHT31;56766;52.260;20.746;2023-02-07T14:57:54;1.63;76.68
69546;SHT31;56766;52.260;20.746;2023-02-07T15:00:36;1.59;76.78
69546;SHT31;56766;52.260;20.746;2023-02-07T15:03:12;1.57;76.93
69546;SHT31;56766;52.260;20.746;2023-02-07T15:06:00;1.58;77.08
69546;SHT31;56766;52.260;20.746;2023-02-07T15:08:30;1.58;77.11
69546;SHT31;56766;52.260;20.746;2023-02-07T15:11:04;1.52;77.12
69546;SHT31;56766;52.260;20.746;2023-02-07T15:13:36;1.48;77.41
69546;SHT31;56766;52.260;20.746;2023-02-07T15:16:19;1.39;77.50
69546;SHT31;56766;52.260;20.746;2023-02-07T15:18:59;1.34;77.65
69546;SHT31;56766;52.260;20.746;2023-02-07T15:21:40;1.31;77.75
69546;SHT31;56766;52.260;20.746;2023-02-07T15:24:17;1.23;77.95
69546;SHT31;56766;52.260;20.746;2023-02-07T15:26:56;1.15;78.13
69546;SHT31;56766;52.260;20.746;2023-02-07T15:29:28;1.11;78.35
69546;SHT31;56766;52.260;20.746;2023-02-07T15:31:56;1.07;78.44
69546;SHT31;56766;52.260;20.746;2023-02-07T15:34:26;1.03;78.53
69546;SHT31;56766;52.260;20.746;2023-02-07T15:37:15;0.99;78.64
69546;SHT31;56766;52.260;20.746;2023-02-07T15:39:46;0.95;78.82
69546;SHT31;56766;52.260;20.746;2023-02-07T15:42:17;0.95;78.95
69546;SHT31;56766;52.260;20.746;2023-02-07T15:44:56;0.93;79.05
69546;SHT31;56766;52.260;20.746;2023-02-07T15:50:20;0.92;79.09
69546;SHT31;56766;52.260;20.746;2023-02-07T15:52:52;0.90;79.14
69546;SHT31;56766;52.260;20.746;2023-02-07T15:55:31;0.91;79.27
69546;SHT31;56766;52.260;20.746;2023-02-07T15:58:20;0.90;79.38
69546;SHT31;56766;52.260;20.746;2023-02-07T16:01:02;0.88;79.45
69546;SHT31;56766;52.260;20.746;2023-02-07T16:03:36;0.86;79.49
69546;SHT31;56766;52.260;20.746;2023-02-07T16:06:19;0.84;79.55
69546;SHT31;56766;52.260;20.746;2023-02-07T16:09:00;0.83;79.60
69546;SHT31;56766;52.260;20.746;2023-02-07T16:16:49;0.85;79.80
69546;SHT31;56766;52.260;20.746;2023-02-07T16:22:03;0.84;79.81
69546;SHT31;56766;52.260;20.746;2023-02-07T16:24:39;0.83;79.85
69546;SHT31;56766;52.260;20.746;2023-02-07T16:27:18;0.82;79.96
69546;SHT31;56766;52.260;20.746;2023-02-07T16:29:49;0.79;80.05
69546;SHT31;56766;52.260;20.746;2023-02-07T16:32:16;0.78;80.10
69546;SHT31;56766;52.260;20.746;2023-02-07T16:34:43;0.79;80.10
69546;SHT31;56766;52.260;20.746;2023-02-07T16:37:10;0.81;80.13
69546;SHT31;56766;52.260;20.746;2023-02-07T16:39:38;0.82;80.17
69546;SHT31;56766;52.260;20.746;2023-02-07T16:42:07;0.86;80.20
69546;SHT31;56766;52.260;20.746;2023-02-07T16:44:40;0.87;80.11
69546;SHT31;56766;52.260;20.746;2023-02-07T16:47:08;0.86;80.10
69546;SHT31;56766;52.260;20.746;2023-02-07T16:49:41;0.83;80.13
69546;SHT31;56766;52.260;20.746;2023-02-07T16:52:10;0.80;80.19
69546;SHT31;56766;52.260;20.746;2023-02-07T16:54:36;0.78;80.24
69546;SHT31;56766;52.260;20.746;2023-02-07T16:57:03;0.77;80.28
69546;SHT31;56766;52.260;20.746;2023-02-07T16:59:30;0.75;80.31
69546;SHT31;56766;52.260;20.746;2023-02-07T17:01:56;0.73;80.40
69546;SHT31;56766;52.260;20.746;2023-02-07T17:04:23;0.70;80.53
69546;SHT31;56766;52.260;20.746;2023-02-07T17:06:49;0.68;80.59
69546;SHT31;56766;52.260;20.746;2023-02-07T17:11:48;0.66;80.61
69546;SHT31;56766;52.260;20.746;2023-02-07T17:14:15;0.65;80.64
69546;SHT31;56766;52.260;20.746;2023-02-07T17:16:41;0.63;80.67
69546;SHT31;56766;52.260;20.746;2023-02-07T17:19:11;0.64;80.72
69546;SHT31;56766;52.260;20.746;2023-02-07T17:21:46;0.64;80.80
69546;SHT31;56766;52.260;20.746;2023-02-07T17:24:13;0.63;80.89
69546;SHT31;56766;52.260;20.746;2023-02-07T17:26:43;0.61;80.88
69546;SHT31;56766;52.260;20.746;2023-02-07T17:29:16;0.60;80.96
69546;SHT31;56766;52.260;20.746;2023-02-07T17:31:44;0.59;80.99
69546;SHT31;56766;52.260;20.746;2023-02-07T17:34:12;0.61;81.01
69546;SHT31;56766;52.260;20.746;2023-02-07T17:36:44;0.62;81.01
69546;SHT31;56766;52.260;20.746;2023-02-07T17:39:14;0.64;81.02
69546;SHT31;56766;52.260;20.746;2023-02-07T17:41:43;0.63;80.96
69546;SHT31;56766;52.260;20.746;2023-02-07T17:44:10;0.62;81.00
69546;SHT31;56766;52.260;20.746;2023-02-07T17:46:37;0.61;81.00
69546;SHT31;56766;52.260;20.746;2023-02-07T17:49:10;0.60;80.98
69546;SHT31;56766;52.260;20.746;2023-02-07T17:51:39;0.59;81.06
69546;SHT31;56766;52.260;20.746;2023-02-07T17:54:05;0.60;81.06
69546;SHT31;56766;52.260;20.746;2023-02-07T17:56:33;0.56;81.08
69546;SHT31;56766;52.260;20.746;2023-02-07T17:59:03;0.55;81.04
69546;SHT31;56766;52.260;20.746;2023-02-07T18:01:32;0.54;81.05